createdAt,value
2018-03-29T00:00:57.721Z,6.17
2018-03-29T00:03:25.501Z,6.90
2018-03-29T00:05:53.243Z,7.57
2018-03-29T00:08:20.956Z,5.67
2018-03-29T00:10:48.735Z,6.43
2018-03-29T00:13:16.507Z,5.90
2018-03-29T00:15:44.284Z,8.30
2018-03-29T00:18:12.472Z,5.97
2018-03-29T00:20:40.138Z,4.60
2018-03-29T00:23:07.817Z,6.20
2018-03-29T00:25:35.544Z,6.27
2018-03-29T00:28:03.276Z,5.80
2018-03-29T00:30:31.010Z,6.37
2018-03-29T00:32:58.725Z,6.17
2018-03-29T00:35:26.401Z,6.80
2018-03-29T00:37:54.078Z,6.77
2018-03-29T00:40:21.861Z,4.80
2018-03-29T00:42:49.536Z,7.03
2018-03-29T00:45:17.427Z,6.07
2018-03-29T00:47:45.193Z,5.00
2018-03-29T00:50:12.873Z,5.03
2018-03-29T00:52:40.703Z,5.03
2018-03-29T00:55:08.608Z,5.60
2018-03-29T00:57:36.361Z,4.43
2018-03-29T01:00:04.286Z,4.83
2018-03-29T01:02:32.019Z,3.83
2018-03-29T01:04:59.643Z,4.67
2018-03-29T01:07:27.522Z,5.40
2018-03-29T01:09:55.298Z,3.87
2018-03-29T01:12:23.033Z,5.33
2018-03-29T01:14:50.855Z,4.80
2018-03-29T01:17:18.631Z,6.03
2018-03-29T01:19:46.408Z,4.40
2018-03-29T01:22:14.188Z,4.80
2018-03-29T01:24:42.073Z,5.03
2018-03-29T01:27:09.809Z,4.87
2018-03-29T01:29:37.625Z,4.60
2018-03-29T01:32:05.399Z,4.80
2018-03-29T01:34:33.283Z,6.73
2018-03-29T01:37:01.047Z,5.90
2018-03-29T01:39:28.787Z,6.80
2018-03-29T01:41:56.500Z,5.87
2018-03-29T01:44:24.181Z,6.63
2018-03-29T01:46:51.867Z,5.43
2018-03-29T01:49:19.743Z,6.43
2018-03-29T01:51:47.418Z,8.17
2018-03-29T01:54:15.098Z,6.30
2018-03-29T01:56:42.771Z,7.90
2018-03-29T01:59:10.540Z,8.50
2018-03-29T02:01:38.330Z,8.60
2018-03-29T02:04:06.048Z,8.10
2018-03-29T02:06:33.885Z,8.23
2018-03-29T02:09:01.554Z,8.13
2018-03-29T02:11:29.631Z,11.43
2018-03-29T02:13:57.315Z,9.07
2018-03-29T02:16:25.092Z,9.03
2018-03-29T02:18:52.767Z,7.20
2018-03-29T02:21:20.494Z,7.90
2018-03-29T02:23:48.331Z,7.20
2018-03-29T02:26:16.513Z,8.10
2018-03-29T02:28:44.267Z,7.60
2018-03-29T02:31:12.074Z,7.00
2018-03-29T02:33:39.951Z,8.90
2018-03-29T02:36:07.732Z,7.23
2018-03-29T02:38:35.506Z,7.93
2018-03-29T02:41:03.290Z,7.57
2018-03-29T02:43:31.163Z,9.07
2018-03-29T02:45:58.940Z,8.33
2018-03-29T02:48:26.680Z,8.93
2018-03-29T02:50:54.497Z,9.40
2018-03-29T02:53:22.278Z,9.73
2018-03-29T02:55:49.952Z,8.37
2018-03-29T02:58:17.620Z,6.93
2018-03-29T03:00:45.295Z,11.20
2018-03-29T03:03:12.997Z,10.27
2018-03-29T03:05:40.772Z,10.90
2018-03-29T03:08:08.843Z,10.83
2018-03-29T03:10:36.525Z,8.90
2018-03-29T03:13:04.191Z,10.07
2018-03-29T03:15:31.904Z,10.53
2018-03-29T03:17:59.745Z,8.93
2018-03-29T03:20:27.525Z,11.30
2018-03-29T03:22:55.299Z,11.97
2018-03-29T03:25:23.080Z,11.10
2018-03-29T03:27:50.923Z,10.90
2018-03-29T03:30:18.530Z,12.60
2018-03-29T03:32:46.310Z,13.50
2018-03-29T03:35:14.089Z,11.83
2018-03-29T03:37:41.862Z,12.90
2018-03-29T03:40:09.542Z,12.47
2018-03-29T03:42:37.321Z,14.17
2018-03-29T03:45:05.200Z,11.00
2018-03-29T03:47:32.943Z,12.60
2018-03-29T03:50:00.635Z,14.50
2018-03-29T03:52:28.399Z,14.63
2018-03-29T03:54:56.213Z,12.40
2018-03-29T03:57:23.985Z,12.97
2018-03-29T03:59:52.070Z,13.30
2018-03-29T04:02:19.877Z,11.63
2018-03-29T04:04:47.629Z,12.73
2018-03-29T04:07:15.306Z,12.33
2018-03-29T04:09:43.140Z,12.53
2018-03-29T04:12:10.855Z,13.13
2018-03-29T04:14:38.535Z,12.30
2018-03-29T04:17:06.315Z,16.10
2018-03-29T04:19:34.192Z,13.70
2018-03-29T04:22:01.976Z,12.10
2018-03-29T04:24:29.754Z,11.53
2018-03-29T04:26:57.936Z,13.80
2018-03-29T04:29:25.728Z,10.40
2018-03-29T04:31:53.538Z,12.33
2018-03-29T04:34:21.274Z,12.57
2018-03-29T04:36:48.936Z,14.67
2018-03-29T04:39:16.723Z,13.13
2018-03-29T04:41:44.502Z,12.83
2018-03-29T04:44:12.270Z,13.07
2018-03-29T04:46:40.364Z,13.97
2018-03-29T04:49:08.177Z,12.80
2018-03-29T04:51:35.917Z,14.10
2018-03-29T04:54:03.600Z,15.97
2018-03-29T04:56:31.372Z,17.33
2018-03-29T04:58:59.251Z,15.27
2018-03-29T05:01:26.988Z,16.27
2018-03-29T05:03:54.706Z,15.17
2018-03-29T05:06:22.483Z,17.53
2018-03-29T05:08:50.208Z,16.90
2018-03-29T05:11:18.127Z,15.70
2018-03-29T05:13:46.025Z,17.60
2018-03-29T05:16:13.802Z,17.90
2018-03-29T05:18:41.685Z,18.00
2018-03-29T05:21:09.460Z,18.57
2018-03-29T05:23:37.142Z,16.43
2018-03-29T05:26:07.884Z,17.47
2018-03-29T05:28:35.615Z,20.60
2018-03-29T05:31:03.439Z,21.40
2018-03-29T05:33:31.317Z,21.83
2018-03-29T05:35:59.041Z,23.03
2018-03-29T05:38:26.874Z,23.47
2018-03-29T05:40:55.217Z,21.67
2018-03-29T05:43:22.944Z,22.97
2018-03-29T05:45:50.723Z,21.90
2018-03-29T05:48:18.503Z,22.50
2018-03-29T05:50:46.396Z,23.57
2018-03-29T05:53:14.058Z,24.57
2018-03-29T05:55:41.823Z,25.50
2018-03-29T05:58:09.613Z,21.70
2018-03-29T06:00:37.286Z,23.87
2018-03-29T06:03:05.035Z,24.07
2018-03-29T06:05:32.844Z,25.70
2018-03-29T06:08:00.584Z,27.63
2018-03-29T06:10:28.403Z,25.20
2018-03-29T06:12:56.281Z,27.07
2018-03-29T06:15:24.054Z,25.90
2018-03-29T06:17:57.569Z,28.83
2018-03-29T06:20:25.312Z,24.23
2018-03-29T06:22:53.125Z,26.20
2018-03-29T06:25:20.901Z,25.80
2018-03-29T06:27:48.683Z,25.97
2018-03-29T06:30:16.564Z,24.37
2018-03-29T06:32:44.301Z,24.60
2018-03-29T06:35:12.116Z,25.27
2018-03-29T06:37:39.898Z,23.83
2018-03-29T06:40:07.564Z,23.60
2018-03-29T06:42:35.312Z,22.40
2018-03-29T06:45:03.080Z,25.13
2018-03-29T06:47:30.793Z,23.50
2018-03-29T06:49:58.583Z,23.07
2018-03-29T06:52:26.357Z,23.80
2018-03-29T06:54:54.136Z,24.90
2018-03-29T06:57:21.986Z,21.50
2018-03-29T06:59:49.754Z,24.27
2018-03-29T07:02:17.476Z,24.60
2018-03-29T07:04:45.350Z,24.97
2018-03-29T07:07:13.230Z,21.90
2018-03-29T07:09:40.900Z,22.80
2018-03-29T07:12:08.682Z,27.63
2018-03-29T07:14:36.424Z,25.87
2018-03-29T07:17:04.140Z,24.93
2018-03-29T07:19:32.221Z,24.33
2018-03-29T07:21:59.897Z,23.73
2018-03-29T07:24:27.571Z,24.77
2018-03-29T07:26:55.240Z,23.70
2018-03-29T07:29:22.923Z,22.70
2018-03-29T07:31:50.803Z,20.87
2018-03-29T07:34:18.583Z,22.70
2018-03-29T07:36:46.326Z,27.13
2018-03-29T07:39:14.092Z,22.50
2018-03-29T07:41:41.808Z,26.23
2018-03-29T07:44:09.695Z,23.90
2018-03-29T07:46:37.362Z,23.20
2018-03-29T07:49:05.111Z,25.80
2018-03-29T07:51:32.926Z,26.47
2018-03-29T07:54:00.592Z,23.57
2018-03-29T07:56:28.376Z,24.17
2018-03-29T07:58:56.568Z,24.43
2018-03-29T08:01:24.264Z,23.90
2018-03-29T08:03:51.984Z,23.53
2018-03-29T08:06:19.697Z,23.10
2018-03-29T08:08:47.473Z,21.10
2018-03-29T08:11:15.249Z,23.50
2018-03-29T08:13:43.032Z,24.93
2018-03-29T08:16:10.770Z,23.03
2018-03-29T08:18:38.783Z,24.90
2018-03-29T08:21:06.464Z,23.00
2018-03-29T08:23:34.133Z,24.03
2018-03-29T08:26:01.982Z,21.77
2018-03-29T08:28:29.797Z,23.53
2018-03-29T08:30:57.575Z,24.93
2018-03-29T08:33:25.456Z,24.77
2018-03-29T08:35:53.135Z,25.87
2018-03-29T08:38:20.863Z,27.47
2018-03-29T08:40:48.687Z,23.93
2018-03-29T08:43:16.420Z,26.20
2018-03-29T08:45:44.243Z,24.87
2018-03-29T08:48:12.124Z,22.77
2018-03-29T08:50:39.796Z,24.30
2018-03-29T08:53:07.468Z,24.90
2018-03-29T08:55:35.253Z,21.50
2018-03-29T08:58:03.034Z,25.83
2018-03-29T09:00:30.705Z,23.13
2018-03-29T09:02:58.570Z,21.70
2018-03-29T09:05:26.366Z,22.20
2018-03-29T09:07:54.111Z,20.90
2018-03-29T09:10:21.919Z,24.30
2018-03-29T09:12:49.697Z,21.30
2018-03-29T09:15:17.463Z,21.63
2018-03-29T09:17:45.204Z,21.00
2018-03-29T09:20:12.896Z,22.60
2018-03-29T09:22:40.707Z,20.73
2018-03-29T09:25:08.492Z,19.63
2018-03-29T09:27:36.261Z,19.27
2018-03-29T09:30:04.039Z,19.30
2018-03-29T09:32:31.822Z,19.00
2018-03-29T09:34:59.545Z,19.20
2018-03-29T09:37:27.375Z,19.27
2018-03-29T09:39:55.566Z,21.70
2018-03-29T09:42:23.343Z,15.90
2018-03-29T09:44:51.121Z,20.67
2018-03-29T09:47:18.896Z,18.60
2018-03-29T09:49:46.674Z,18.90
2018-03-29T09:52:14.760Z,20.90
2018-03-29T09:54:42.541Z,19.67
2018-03-29T09:57:10.269Z,19.57
2018-03-29T09:59:38.093Z,16.63
2018-03-29T10:02:11.499Z,17.70
2018-03-29T10:04:39.386Z,17.77
2018-03-29T10:10:06.282Z,20.03
2018-03-29T10:12:34.054Z,20.67
2018-03-29T10:15:01.796Z,21.80
2018-03-29T10:17:29.422Z,20.13
2018-03-29T10:19:57.595Z,19.57
2018-03-29T10:22:25.266Z,19.97
2018-03-29T10:24:53.560Z,20.30
2018-03-29T10:27:21.301Z,20.57
2018-03-29T10:29:49.114Z,24.00
2018-03-29T10:32:16.937Z,23.60
2018-03-29T10:34:44.660Z,23.23
2018-03-29T10:37:12.337Z,24.10
2018-03-29T10:39:40.139Z,17.30
2018-03-29T10:42:07.854Z,20.83
2018-03-29T10:44:35.567Z,15.13
2018-03-29T10:47:03.654Z,12.17
2018-03-29T10:49:31.334Z,14.37
2018-03-29T10:51:59.118Z,9.90
2018-03-29T10:54:26.792Z,9.67
2018-03-29T10:56:54.571Z,9.37
2018-03-29T10:59:22.293Z,9.40
2018-03-29T11:01:50.021Z,8.80
2018-03-29T11:04:17.764Z,13.93
2018-03-29T11:06:45.583Z,13.97
2018-03-29T11:09:13.348Z,11.10
2018-03-29T11:11:41.132Z,12.10
2018-03-29T11:14:08.804Z,13.50
2018-03-29T11:16:36.881Z,13.37
2018-03-29T11:19:04.567Z,10.33
2018-03-29T11:21:32.236Z,8.67
2018-03-29T11:23:59.868Z,8.60
2018-03-29T11:26:27.697Z,10.23
2018-03-29T11:28:56.499Z,11.03
2018-03-29T11:31:24.384Z,11.47
2018-03-29T11:33:52.058Z,10.67
2018-03-29T11:36:19.734Z,11.00
2018-03-29T11:38:47.460Z,11.00
2018-03-29T11:41:15.080Z,11.67
2018-03-29T11:43:42.964Z,13.37
2018-03-29T11:46:10.591Z,14.30
2018-03-29T11:48:38.192Z,13.40
2018-03-29T11:51:05.863Z,12.40
2018-03-29T11:53:33.539Z,12.47
2018-03-29T11:56:01.653Z,12.40
2018-03-29T11:58:29.304Z,12.77
2018-03-29T12:00:56.996Z,11.80
2018-03-29T12:03:24.726Z,14.30
2018-03-29T12:05:52.436Z,13.97
2018-03-29T12:08:20.141Z,17.00
2018-03-29T12:10:48.010Z,16.27
2018-03-29T12:13:15.784Z,17.87
2018-03-29T12:15:43.665Z,20.07
2018-03-29T12:18:11.852Z,18.40
2018-03-29T12:20:39.733Z,19.87
2018-03-29T12:23:07.512Z,17.47
2018-03-29T12:25:35.288Z,18.33
2018-03-29T12:28:03.066Z,12.73
2018-03-29T12:30:30.702Z,9.10
2018-03-29T12:32:58.522Z,9.17
2018-03-29T12:35:26.298Z,7.77
2018-03-29T12:37:54.077Z,10.10
2018-03-29T12:40:22.164Z,11.47
2018-03-29T12:42:49.886Z,10.70
2018-03-29T12:45:17.519Z,11.30
2018-03-29T12:47:45.397Z,13.80
2018-03-29T12:50:13.111Z,15.60
2018-03-29T12:52:40.946Z,15.97
2018-03-29T12:55:20.502Z,18.03
2018-03-29T12:58:00.043Z,11.97
2018-03-29T13:00:27.680Z,6.90
2018-03-29T13:02:55.445Z,7.93
2018-03-29T13:05:23.132Z,8.90
2018-03-29T13:07:50.747Z,6.33
2018-03-29T13:10:18.436Z,9.57
2018-03-29T13:12:46.109Z,9.57
2018-03-29T13:15:13.783Z,9.07
2018-03-29T13:17:41.462Z,8.43
2018-03-29T13:20:09.166Z,8.50
2018-03-29T13:22:36.872Z,7.03
2018-03-29T13:25:04.703Z,8.30
2018-03-29T13:27:32.471Z,9.83
2018-03-29T13:30:00.353Z,10.60
2018-03-29T13:32:28.016Z,11.00
2018-03-29T13:34:55.703Z,11.83
2018-03-29T13:37:23.786Z,13.10
2018-03-29T13:39:51.467Z,10.63
2018-03-29T13:42:19.141Z,11.60
2018-03-29T13:44:46.928Z,10.40
2018-03-29T13:47:14.793Z,11.20
2018-03-29T13:49:42.576Z,11.20
2018-03-29T13:52:10.174Z,11.47
2018-03-29T13:54:37.836Z,15.07
2018-03-29T13:57:05.513Z,14.20
2018-03-29T13:59:33.249Z,14.03
2018-03-29T14:02:01.068Z,13.90
2018-03-29T14:04:28.730Z,13.90
2018-03-29T14:06:56.503Z,14.17
2018-03-29T14:09:24.288Z,14.83
2018-03-29T14:11:52.066Z,14.50
2018-03-29T14:14:19.798Z,13.07
2018-03-29T14:16:47.625Z,12.23
2018-03-29T14:19:15.485Z,13.97
2018-03-29T14:21:43.279Z,13.47
2018-03-29T14:24:11.466Z,11.10
2018-03-29T14:26:39.243Z,11.90
2018-03-29T14:29:06.854Z,11.20
2018-03-29T14:31:34.527Z,11.67
2018-03-29T14:34:02.124Z,11.20
2018-03-29T14:36:29.760Z,7.27
2018-03-29T14:38:57.438Z,13.77
2018-03-29T14:41:25.064Z,11.30
2018-03-29T14:43:52.771Z,10.73
2018-03-29T14:46:20.435Z,9.70
2018-03-29T14:48:48.027Z,10.23
2018-03-29T14:51:16.396Z,11.43
2018-03-29T14:53:44.001Z,9.83
2018-03-29T14:56:11.604Z,10.67
2018-03-29T14:58:39.245Z,11.83
2018-03-29T15:01:06.911Z,10.60
2018-03-29T15:03:34.564Z,14.20
2018-03-29T15:06:02.326Z,13.00
2018-03-29T15:08:30.022Z,13.90
2018-03-29T15:10:57.026Z,9.57
2018-03-29T15:13:24.771Z,8.67
2018-03-29T15:15:52.434Z,13.50
2018-03-29T15:18:20.077Z,24.90
2018-03-29T15:20:47.690Z,41.07
2018-03-29T15:23:15.369Z,10.10
2018-03-29T15:25:43.150Z,10.10
2018-03-29T15:28:10.750Z,10.50
2018-03-29T15:30:38.797Z,10.20
2018-03-29T15:33:06.483Z,11.30
2018-03-29T15:35:34.155Z,9.40
2018-03-29T15:38:02.014Z,12.67
2018-03-29T15:40:29.606Z,16.43
2018-03-29T15:42:57.198Z,13.03
2018-03-29T15:45:24.845Z,10.27
2018-03-29T15:47:52.448Z,13.83
2018-03-29T15:50:20.214Z,11.40
2018-03-29T15:52:47.877Z,16.13
2018-03-29T15:55:15.946Z,11.80
2018-03-29T15:57:43.530Z,22.93
2018-03-29T16:00:11.215Z,12.27
2018-03-29T16:02:38.848Z,17.83
2018-03-29T16:05:06.453Z,9.97
2018-03-29T16:07:34.148Z,14.13
2018-03-29T16:10:01.737Z,10.70
2018-03-29T16:12:29.391Z,9.30
2018-03-29T16:14:56.996Z,8.57
2018-03-29T16:17:24.600Z,11.17
2018-03-29T16:19:52.257Z,9.03
2018-03-29T16:22:19.852Z,7.50
2018-03-29T16:24:47.468Z,17.07
2018-03-29T16:27:15.152Z,15.27
2018-03-29T16:29:42.807Z,14.60
2018-03-29T16:32:10.488Z,11.27
2018-03-29T16:34:38.273Z,16.77
2018-03-29T16:37:05.944Z,15.83
2018-03-29T16:39:33.828Z,12.30
2018-03-29T16:42:01.517Z,9.73
2018-03-29T16:44:29.176Z,11.47
2018-03-29T16:46:57.470Z,17.77
2018-03-29T16:49:25.348Z,10.53
2018-03-29T16:51:53.225Z,10.80
2018-03-29T16:54:21.302Z,14.13
2018-03-29T16:56:48.989Z,11.27
2018-03-29T16:59:16.640Z,20.60
2018-03-29T17:01:44.442Z,15.83
2018-03-29T17:04:12.327Z,19.13
2018-03-29T17:06:40.203Z,12.80
2018-03-29T17:09:08.081Z,26.80
2018-03-29T17:11:35.743Z,17.50
2018-03-29T17:14:03.535Z,11.93
2018-03-29T17:16:31.278Z,11.63
2018-03-29T17:18:59.099Z,10.80
2018-03-29T17:21:26.867Z,13.30
2018-03-29T17:23:54.603Z,12.07
2018-03-29T17:26:22.427Z,15.00
2018-03-29T17:28:50.097Z,11.43
2018-03-29T17:31:17.988Z,16.47
2018-03-29T17:33:45.643Z,15.47
2018-03-29T17:36:13.338Z,15.60
2018-03-29T17:38:41.112Z,14.20
2018-03-29T17:41:08.884Z,14.33
2018-03-29T17:43:36.667Z,13.60
2018-03-29T17:46:04.443Z,14.07
2018-03-29T17:48:32.118Z,14.10
2018-03-29T17:50:59.794Z,16.90
2018-03-29T17:53:27.574Z,16.60
2018-03-29T17:55:55.346Z,14.67
2018-03-29T17:58:23.538Z,15.20
2018-03-29T18:00:51.334Z,14.40
2018-03-29T18:03:19.093Z,13.90
2018-03-29T18:05:46.936Z,13.63
2018-03-29T18:08:14.642Z,14.00
2018-03-29T18:10:42.427Z,14.10
2018-03-29T18:13:10.098Z,14.87
2018-03-29T18:15:38.087Z,15.83
2018-03-29T18:18:05.759Z,15.20
2018-03-29T18:20:33.557Z,15.53
2018-03-29T18:23:01.617Z,15.30
2018-03-29T18:25:29.286Z,13.33
2018-03-29T18:27:57.035Z,13.87
2018-03-29T18:30:24.851Z,14.77
2018-03-29T18:32:52.734Z,14.67
2018-03-29T18:35:20.341Z,13.70
2018-03-29T18:37:47.947Z,14.07
2018-03-29T18:40:15.865Z,15.03
2018-03-29T18:42:43.494Z,13.93
2018-03-29T18:45:11.134Z,14.77
2018-03-29T18:47:38.835Z,15.20
2018-03-29T18:50:06.456Z,16.80
2018-03-29T18:52:34.068Z,17.80
2018-03-29T18:55:01.709Z,16.67
2018-03-29T18:57:29.425Z,18.10
2018-03-29T18:59:57.050Z,17.07
2018-03-29T19:02:24.655Z,17.27
2018-03-29T19:04:52.359Z,17.17
2018-03-29T19:07:20.085Z,17.13
2018-03-29T19:09:47.871Z,16.00
2018-03-29T19:12:15.951Z,18.57
2018-03-29T19:14:43.629Z,17.00
2018-03-29T19:17:11.301Z,31.50
2018-03-29T19:19:39.084Z,18.30
2018-03-29T19:22:06.833Z,21.33
2018-03-29T19:24:34.591Z,19.07
2018-03-29T19:27:02.414Z,21.27
2018-03-29T19:29:30.149Z,20.03
2018-03-29T19:31:57.868Z,20.93
2018-03-29T19:34:25.647Z,21.17
2018-03-29T19:36:53.529Z,20.70
2018-03-29T19:39:21.305Z,21.10
2018-03-29T19:41:49.208Z,22.63
2018-03-29T19:44:16.838Z,19.50
2018-03-29T19:46:44.740Z,20.63
2018-03-29T19:49:12.523Z,20.40
2018-03-29T19:51:40.197Z,21.43
2018-03-29T19:54:08.076Z,19.30
2018-03-29T19:56:35.764Z,19.77
2018-03-29T19:59:03.390Z,19.63
2018-03-29T20:01:31.204Z,20.47
2018-03-29T20:03:58.881Z,18.60
2018-03-29T20:06:26.657Z,17.23
2018-03-29T20:08:54.435Z,17.37
2018-03-29T20:11:22.203Z,19.13
2018-03-29T20:13:49.987Z,19.60
2018-03-29T20:16:17.654Z,20.43
2018-03-29T20:18:45.403Z,19.33
2018-03-29T20:21:13.273Z,18.20
2018-03-29T20:23:41.304Z,17.90
2018-03-29T20:26:09.029Z,19.17
2018-03-29T20:28:36.665Z,18.60
2018-03-29T20:31:04.435Z,16.97
2018-03-29T20:33:32.081Z,17.63
2018-03-29T20:35:59.888Z,19.47
2018-03-29T20:38:27.703Z,18.57
2018-03-29T20:40:55.332Z,17.00
2018-03-29T20:43:23.026Z,17.63
2018-03-29T20:45:50.674Z,20.20
2018-03-29T20:48:18.367Z,18.70
2018-03-29T20:50:46.008Z,17.87
2018-03-29T20:53:13.640Z,17.43
2018-03-29T20:55:41.321Z,20.37
2018-03-29T20:58:08.960Z,19.47
2018-03-29T21:00:36.560Z,18.43
2018-03-29T21:03:04.242Z,19.00
2018-03-29T21:05:31.921Z,19.10
2018-03-29T21:07:59.528Z,21.03
2018-03-29T21:10:27.151Z,21.87
2018-03-29T21:12:54.809Z,19.70
2018-03-29T21:15:22.426Z,22.40
2018-03-29T21:17:50.061Z,20.13
2018-03-29T21:20:17.742Z,23.43
2018-03-29T21:22:45.360Z,22.20
2018-03-29T21:25:13.070Z,21.73
2018-03-29T21:27:40.686Z,23.63
2018-03-29T21:30:08.278Z,21.40
2018-03-29T21:32:35.940Z,22.50
2018-03-29T21:35:03.548Z,21.00
2018-03-29T21:37:31.161Z,19.07
2018-03-29T21:39:58.788Z,21.80
2018-03-29T21:42:26.455Z,20.30
2018-03-29T21:44:54.189Z,22.60
2018-03-29T21:47:21.965Z,20.80
2018-03-29T21:49:49.627Z,20.20
2018-03-29T21:52:17.251Z,23.33
2018-03-29T21:54:44.916Z,22.23
2018-03-29T21:57:12.535Z,22.10
2018-03-29T21:59:40.148Z,21.23
2018-03-29T22:02:07.796Z,22.80
2018-03-29T22:04:35.438Z,21.50
2018-03-29T22:07:03.135Z,20.30
2018-03-29T22:09:30.767Z,20.90
2018-03-29T22:11:58.384Z,23.13
2018-03-29T22:14:26.368Z,22.90
2018-03-29T22:16:53.985Z,22.50
2018-03-29T22:19:21.598Z,21.77
2018-03-29T22:21:49.227Z,23.57
2018-03-29T22:24:16.870Z,21.13
2018-03-29T22:26:44.671Z,22.43
2018-03-29T22:29:12.550Z,23.43
2018-03-29T22:31:40.166Z,22.53
2018-03-29T22:34:07.845Z,24.13
2018-03-29T22:36:35.679Z,24.57
2018-03-29T22:39:03.542Z,22.67
2018-03-29T22:41:31.335Z,22.13
2018-03-29T22:43:58.956Z,21.60
2018-03-29T22:46:26.600Z,22.00
2018-03-29T22:48:54.269Z,22.10
2018-03-29T22:51:21.866Z,22.93
2018-03-29T22:53:49.516Z,20.50
2018-03-29T22:56:17.181Z,22.03
2018-03-29T22:58:44.792Z,23.53
2018-03-29T23:01:12.447Z,20.83
2018-03-29T23:03:40.116Z,24.07
2018-03-29T23:06:07.769Z,23.00
2018-03-29T23:08:35.376Z,24.40
2018-03-29T23:11:03.010Z,22.10
2018-03-29T23:13:30.660Z,24.40
2018-03-29T23:15:58.302Z,24.57
2018-03-29T23:18:25.978Z,23.10
2018-03-29T23:20:53.583Z,23.37
2018-03-29T23:23:21.193Z,23.40
2018-03-29T23:25:48.827Z,22.07
2018-03-29T23:28:16.440Z,25.40
2018-03-29T23:30:44.084Z,25.20
2018-03-29T23:33:11.705Z,23.10
2018-03-29T23:35:39.376Z,23.30
2018-03-29T23:38:06.992Z,23.07
2018-03-29T23:40:34.632Z,22.50
2018-03-29T23:43:02.401Z,23.70
2018-03-29T23:45:30.138Z,22.97
2018-03-29T23:47:57.961Z,21.93
2018-03-29T23:50:25.596Z,22.70
2018-03-29T23:52:53.211Z,24.43
2018-03-29T23:55:21.255Z,24.80
2018-03-29T23:57:48.929Z,25.33
